Time;durP1;ratioP1;P1;durP2;ratioP2;P2;SDS_P1;SDS_P2;PMS_P1;PMS_P2;Temp;Humidity;BMP_temperature;BMP_pressure;BME280_temperature;BME280_humidity;BME280_pressure;Samples;Min_cycle;Max_cycle;Signal;HPM_P1;HPM_P2
2023/03/10 00:02:03;;;;;;;8.97;4.00;;;0.00;99.90;;;;;;5053205;28;20192;-82
2023/03/10 00:04:29;;;;;;;4.77;3.77;;;0.00;99.90;;;;;;5053388;28;20180;-82
2023/03/10 00:06:54;;;;;;;5.60;3.47;;;-0.10;99.90;;;;;;5052951;28;20633;-82
2023/03/10 00:09:20;;;;;;;5.90;4.17;;;0.10;99.90;;;;;;5018889;28;20171;-81
2023/03/10 00:11:46;;;;;;;3.63;3.23;;;0.10;99.90;;;;;;5035509;28;20188;-82
2023/03/10 00:14:12;;;;;;;6.97;4.03;;;0.00;99.90;;;;;;5035251;28;20266;-82
2023/03/10 00:16:37;;;;;;;7.60;4.20;;;0.10;99.90;;;;;;5035016;28;20263;-82
2023/03/10 00:19:03;;;;;;;7.40;4.43;;;0.10;99.90;;;;;;5053276;28;20214;-82
2023/03/10 00:21:30;;;;;;;5.97;4.53;;;0.30;99.90;;;;;;5053052;28;20540;-82
2023/03/10 00:23:56;;;;;;;4.33;3.30;;;0.10;99.90;;;;;;5052748;28;20183;-82
2023/03/10 00:26:24;;;;;;;4.57;3.40;;;0.10;99.90;;;;;;5053151;28;20207;-82
2023/03/10 00:28:50;;;;;;;5.23;3.50;;;0.10;99.90;;;;;;5035332;28;20184;-82
2023/03/10 00:31:18;;;;;;;9.83;3.63;;;0.10;99.90;;;;;;5053068;28;20209;-81
2023/03/10 00:33:44;;;;;;;3.23;2.93;;;0.10;99.90;;;;;;5052691;28;20255;-80
2023/03/10 00:36:13;;;;;;;13.80;4.33;;;0.10;99.90;;;;;;5053185;28;20182;-80
2023/03/10 00:38:39;;;;;;;4.03;3.10;;;0.10;99.90;;;;;;5052437;28;20253;-80
2023/03/10 00:41:07;;;;;;;7.90;3.57;;;0.10;99.90;;;;;;5035194;28;20187;-80
2023/03/10 00:43:35;;;;;;;3.97;3.57;;;0.20;99.90;;;;;;5052973;28;20225;-79
2023/03/10 00:46:02;;;;;;;7.40;3.93;;;0.20;99.90;;;;;;5052735;28;20172;-80
2023/03/10 00:48:28;;;;;;;7.10;3.17;;;0.20;99.90;;;;;;5052741;28;20180;-81
2023/03/10 00:50:53;;;;;;;4.27;3.33;;;0.20;99.90;;;;;;5052782;28;20230;-79
2023/03/10 00:53:19;;;;;;;5.17;3.43;;;0.20;99.90;;;;;;5052623;28;20188;-81
2023/03/10 00:56:02;;;;;;;6.03;3.47;;;0.20;99.90;;;;;;5052696;28;20686;-82
2023/03/10 00:58:29;;;;;;;6.13;3.83;;;0.20;99.90;;;;;;5052850;28;20196;-80
2023/03/10 01:00:55;;;;;;;3.23;2.73;;;0.30;99.90;;;;;;5034544;28;20212;-80
2023/03/10 01:03:21;;;;;;;7.90;2.87;;;0.30;99.90;;;;;;5034843;28;20199;-83
2023/03/10 01:05:48;;;;;;;13.17;4.23;;;0.30;99.90;;;;;;5052254;28;20172;-80
2023/03/10 01:08:14;;;;;;;9.23;4.10;;;0.30;99.90;;;;;;5037080;28;20275;-79
2023/03/10 01:10:40;;;;;;;7.57;3.00;;;0.30;99.90;;;;;;5056213;28;20585;-83
2023/03/10 01:13:05;;;;;;;11.17;3.83;;;0.30;99.90;;;;;;5038340;28;20231;-80
2023/03/10 01:15:31;;;;;;;6.40;3.87;;;0.30;99.90;;;;;;5056352;28;20570;-80
2023/03/10 01:18:00;;;;;;;23.97;12.57;;;0.30;99.90;;;;;;5056001;28;20176;-79
2023/03/10 01:20:26;;;;;;;10.20;4.13;;;0.40;99.90;;;;;;5038990;28;20215;-79
2023/03/10 01:22:52;;;;;;;8.90;4.70;;;0.40;99.90;;;;;;5056066;28;20199;-80
2023/03/10 01:25:17;;;;;;;6.63;3.37;;;0.40;99.90;;;;;;5056456;28;20654;-81
2023/03/10 01:27:43;;;;;;;9.07;3.00;;;0.30;99.90;;;;;;5037949;28;20168;-82
2023/03/10 01:30:10;;;;;;;7.00;3.73;;;0.30;99.90;;;;;;5038385;28;20259;-79
2023/03/10 01:32:37;;;;;;;3.67;2.90;;;0.40;99.90;;;;;;5055838;28;20178;-79
2023/03/10 01:35:04;;;;;;;10.63;3.73;;;0.40;99.90;;;;;;5037563;28;20179;-79
2023/03/10 01:37:30;;;;;;;9.97;3.63;;;0.40;99.90;;;;;;5038124;28;20182;-79
2023/03/10 01:39:55;;;;;;;5.40;3.53;;;0.50;99.90;;;;;;5055783;28;20211;-81
2023/03/10 01:42:21;;;;;;;9.00;4.20;;;0.40;99.90;;;;;;5055956;28;20278;-79
2023/03/10 01:45:07;;;;;;;5.57;3.87;;;0.50;99.90;;;;;;5055837;28;20209;-80
2023/03/10 01:47:33;;;;;;;17.47;3.97;;;0.40;99.90;;;;;;5055752;28;20201;-79
2023/03/10 01:49:59;;;;;;;5.40;3.83;;;0.40;99.90;;;;;;5055439;28;20255;-79
2023/03/10 01:52:30;;;;;;;13.90;4.67;;;0.50;99.90;;;;;;5055638;28;20176;-79
2023/03/10 01:55:18;;;;;;;13.47;2.77;;;0.50;99.90;;;;;;5055325;28;20632;-79
2023/03/10 01:57:49;;;;;;;3.67;3.30;;;0.40;99.90;;;;;;5055350;28;20269;-80
2023/03/10 02:00:16;;;;;;;8.07;3.50;;;0.50;99.90;;;;;;5055550;28;20669;-79
2023/03/10 02:02:46;;;;;;;3.90;3.10;;;0.50;99.90;;;;;;5055569;28;20181;-79
2023/03/10 02:05:13;;;;;;;8.33;3.70;;;0.50;99.90;;;;;;5055410;28;20258;-82
2023/03/10 02:07:41;;;;;;;4.73;2.87;;;0.60;99.90;;;;;;5037569;28;20187;-80
2023/03/10 02:10:11;;;;;;;9.63;4.87;;;0.50;99.90;;;;;;5055107;28;20268;-80
2023/03/10 02:12:37;;;;;;;11.03;5.67;;;0.50;99.90;;;;;;5055055;28;20567;-80
2023/03/10 02:15:03;;;;;;;10.20;5.30;;;0.50;99.90;;;;;;5020928;28;20266;-80
2023/03/10 02:17:29;;;;;;;3.67;2.80;;;0.60;99.90;;;;;;5039699;28;20191;-79
2023/03/10 02:20:19;;;;;;;3.47;2.20;;;0.50;99.90;;;;;;5039653;28;20242;-79
2023/03/10 02:22:44;;;;;;;5.57;2.53;;;0.60;99.90;;;;;;5040270;28;20190;-78
2023/03/10 02:25:53;;;;;;;3.90;3.37;;;0.50;99.90;;;;;;5059645;28;20179;-79
2023/03/10 02:28:18;;;;;;;7.93;3.43;;;0.60;99.90;;;;;;5054308;28;20266;-79
2023/03/10 02:30:47;;;;;;;7.10;2.83;;;0.60;99.90;;;;;;5054906;28;20211;-81
2023/03/10 02:33:29;;;;;;;3.30;2.93;;;0.60;99.90;;;;;;5060728;28;20175;-78
2023/03/10 02:36:03;;;;;;;6.27;3.20;;;0.60;99.90;;;;;;5060981;28;20175;-79
2023/03/10 02:38:28;;;;;;;5.83;2.50;;;0.70;99.90;;;;;;5062959;28;20236;-80
2023/03/10 02:40:56;;;;;;;3.27;2.80;;;0.60;99.90;;;;;;5038555;28;20538;-81
2023/03/10 02:43:28;;;;;;;8.27;2.63;;;0.60;99.90;;;;;;5054519;28;20275;-79
2023/03/10 02:45:59;;;;;;;10.20;3.27;;;0.60;99.90;;;;;;5054212;28;20172;-80
2023/03/10 02:48:35;;;;;;;6.53;1.90;;;0.60;99.90;;;;;;5054685;28;20504;-80
2023/03/10 02:51:06;;;;;;;7.20;4.03;;;0.60;99.90;;;;;;5054564;28;20255;-80
2023/03/10 02:53:31;;;;;;;8.87;4.20;;;0.70;99.90;;;;;;5054452;28;20176;-80
2023/03/10 02:55:58;;;;;;;7.73;3.30;;;0.70;99.90;;;;;;5054085;28;20673;-80
2023/03/10 02:58:27;;;;;;;6.73;3.60;;;0.70;99.90;;;;;;5054049;28;20202;-80
2023/03/10 03:00:53;;;;;;;4.13;2.40;;;0.70;99.90;;;;;;5036503;28;20210;-80
2023/03/10 03:03:20;;;;;;;4.00;2.47;;;0.60;99.90;;;;;;5054179;28;20185;-80
2023/03/10 03:05:48;;;;;;;5.70;3.33;;;0.60;99.90;;;;;;5036239;28;20186;-80
2023/03/10 03:08:14;;;;;;;3.40;2.50;;;0.70;99.90;;;;;;5053724;28;20222;-80
2023/03/10 03:10:40;;;;;;;2.50;2.30;;;0.70;99.90;;;;;;5053823;28;20241;-80
2023/03/10 03:13:06;;;;;;;3.50;2.33;;;0.60;99.90;;;;;;5053866;28;20223;-80
2023/03/10 03:15:32;;;;;;;5.70;2.37;;;0.70;99.90;;;;;;5053916;28;20643;-80
2023/03/10 03:17:58;;;;;;;4.90;2.97;;;0.70;99.90;;;;;;5035710;28;20597;-80
2023/03/10 03:20:26;;;;;;;4.80;2.43;;;0.70;99.90;;;;;;5036056;28;20203;-80
2023/03/10 03:22:51;;;;;;;7.27;2.80;;;0.60;99.90;;;;;;5053870;28;20259;-80
2023/03/10 03:25:20;;;;;;;4.20;2.63;;;0.60;99.90;;;;;;5035588;28;20668;-81
2023/03/10 03:27:46;;;;;;;5.10;3.73;;;-0.10;99.90;;;;;;5053903;28;20289;-80
2023/03/10 03:30:21;;;;;;;4.43;2.27;;;0.70;99.90;;;;;;5052626;28;20202;-80
2023/03/10 03:32:47;;;;;;;4.90;3.00;;;0.70;99.90;;;;;;5053624;28;20273;-80
2023/03/10 03:35:17;;;;;;;3.07;2.80;;;0.70;99.90;;;;;;5035511;28;20218;-80
2023/03/10 03:37:43;;;;;;;2.83;2.57;;;0.60;99.90;;;;;;5053411;28;20177;-79
2023/03/10 03:40:13;;;;;;;4.83;2.97;;;0.70;99.90;;;;;;5052983;28;20200;-80
2023/03/10 03:42:48;;;;;;;5.07;2.97;;;0.70;99.90;;;;;;5035917;28;20188;-79
2023/03/10 03:45:18;;;;;;;6.20;2.57;;;0.70;99.90;;;;;;5053277;28;20198;-81
2023/03/10 03:47:44;;;;;;;4.63;2.47;;;0.70;99.90;;;;;;5035450;28;20175;-79
2023/03/10 03:50:12;;;;;;;4.97;3.03;;;0.70;99.90;;;;;;5053078;28;20285;-80
2023/03/10 03:52:39;;;;;;;5.33;3.73;;;0.70;99.90;;;;;;5035787;28;20524;-80
2023/03/10 03:55:06;;;;;;;6.43;2.57;;;0.70;99.90;;;;;;5035181;28;20229;-80
2023/03/10 03:57:31;;;;;;;5.43;3.70;;;0.70;99.90;;;;;;5053330;28;20176;-80
2023/03/10 03:59:57;;;;;;;7.67;2.37;;;0.70;99.90;;;;;;5053092;28;20203;-80
2023/03/10 04:02:23;;;;;;;4.00;2.27;;;0.70;99.90;;;;;;5052920;28;20179;-81
2023/03/10 04:04:49;;;;;;;5.00;2.53;;;0.70;99.90;;;;;;5035309;28;20175;-80
2023/03/10 04:07:15;;;;;;;2.60;2.40;;;0.80;99.90;;;;;;5052689;28;20176;-81
2023/03/10 04:09:43;;;;;;;4.13;3.30;;;0.80;99.90;;;;;;5035339;28;20183;-80
2023/03/10 04:12:09;;;;;;;6.63;4.67;;;0.70;99.90;;;;;;5034924;28;20575;-80
2023/03/10 04:14:36;;;;;;;8.57;4.17;;;0.70;99.90;;;;;;5035209;28;20225;-80
2023/03/10 04:17:02;;;;;;;4.40;3.37;;;0.70;99.90;;;;;;5052920;28;20639;-80
2023/03/10 04:19:28;;;;;;;4.10;3.23;;;0.70;99.90;;;;;;5052744;28;20191;-81
2023/03/10 04:21:54;;;;;;;9.47;4.07;;;0.80;99.90;;;;;;5034976;28;20198;-80
2023/03/10 04:24:19;;;;;;;3.77;2.37;;;0.80;99.90;;;;;;5052698;28;20194;-80
2023/03/10 04:26:45;;;;;;;2.97;2.67;;;0.80;99.90;;;;;;5052651;28;20506;-80
2023/03/10 04:29:11;;;;;;;3.47;3.07;;;0.80;99.90;;;;;;5034839;28;20172;-81
2023/03/10 04:31:37;;;;;;;5.83;3.53;;;0.80;99.90;;;;;;5034789;28;20175;-80
2023/03/10 04:34:03;;;;;;;7.33;3.30;;;0.80;99.90;;;;;;5051504;28;20183;-81
2023/03/10 04:36:29;;;;;;;3.40;3.10;;;0.80;99.90;;;;;;5041563;28;20188;-82
2023/03/10 04:38:55;;;;;;;5.00;4.10;;;0.80;99.90;;;;;;5041106;28;20204;-81
2023/03/10 04:41:21;;;;;;;7.47;3.30;;;0.70;99.90;;;;;;5035413;28;20179;-82
2023/03/10 04:43:47;;;;;;;7.27;3.80;;;0.80;99.90;;;;;;5049044;28;20177;-81
2023/03/10 04:46:13;;;;;;;5.77;3.80;;;0.80;99.90;;;;;;5055752;28;20180;-81
2023/03/10 04:48:39;;;;;;;9.13;4.03;;;0.80;99.90;;;;;;5038766;28;20203;-81
2023/03/10 04:51:07;;;;;;;5.93;3.60;;;0.80;99.90;;;;;;5038842;28;20226;-81
2023/03/10 04:53:35;;;;;;;5.63;3.27;;;0.80;99.90;;;;;;5041209;28;20204;-81
2023/03/10 04:56:03;;;;;;;6.97;3.57;;;0.80;99.90;;;;;;5036111;28;20165;-81
2023/03/10 04:58:29;;;;;;;5.07;3.47;;;0.80;99.90;;;;;;5001788;28;20212;-82
2023/03/10 05:00:56;;;;;;;5.20;4.13;;;0.80;99.90;;;;;;5041548;28;20192;-83
2023/03/10 05:03:22;;;;;;;4.20;3.57;;;0.80;99.90;;;;;;5040652;28;20211;-82
2023/03/10 05:05:48;;;;;;;9.50;4.73;;;0.80;99.90;;;;;;5043587;28;20240;-81
2023/03/10 05:08:13;;;;;;;6.17;3.67;;;0.80;99.90;;;;;;5028564;28;20192;-82
2023/03/10 05:10:44;;;;;;;9.27;4.20;;;0.80;99.90;;;;;;5037990;28;20180;-82
2023/03/10 05:13:11;;;;;;;8.60;3.07;;;0.80;99.90;;;;;;5055844;28;20314;-81
2023/03/10 05:15:41;;;;;;;6.27;3.50;;;0.80;99.90;;;;;;5055675;28;20232;-81
2023/03/10 05:18:09;;;;;;;4.33;3.60;;;0.80;99.90;;;;;;5037628;28;20576;-83
2023/03/10 05:20:36;;;;;;;4.70;3.67;;;0.80;99.90;;;;;;5021455;28;20219;-82
2023/03/10 05:23:01;;;;;;;4.70;3.97;;;0.90;99.90;;;;;;5055558;28;20205;-85
2023/03/10 05:25:27;;;;;;;5.43;4.30;;;0.90;99.90;;;;;;5034509;28;20194;-82
2023/03/10 05:27:53;;;;;;;9.10;4.60;;;0.90;99.90;;;;;;5021169;28;20649;-81
2023/03/10 05:30:19;;;;;;;10.03;4.97;;;0.90;99.90;;;;;;5055376;28;20222;-82
2023/03/10 05:32:45;;;;;;;5.00;3.67;;;0.90;99.90;;;;;;5037571;28;20547;-80
2023/03/10 05:35:12;;;;;;;4.77;3.83;;;1.00;99.90;;;;;;5021139;28;20181;-81
2023/03/10 05:37:39;;;;;;;12.67;5.33;;;1.00;99.90;;;;;;5042218;28;20202;-81
2023/03/10 05:40:11;;;;;;;13.90;4.47;;;1.00;99.90;;;;;;5025491;28;20230;-83
2023/03/10 05:42:37;;;;;;;7.40;4.60;;;1.00;99.90;;;;;;5043460;28;20176;-82
2023/03/10 05:45:04;;;;;;;2.77;2.50;;;1.00;99.90;;;;;;5012133;28;20237;-83
2023/03/10 05:47:30;;;;;;;11.10;5.10;;;1.00;99.90;;;;;;5030186;28;20180;-83
2023/03/10 05:49:56;;;;;;;6.83;4.47;;;1.10;99.90;;;;;;5031926;28;20219;-81
2023/03/10 05:52:22;;;;;;;8.17;3.70;;;1.10;99.90;;;;;;5046259;28;20211;-81
2023/03/10 05:54:47;;;;;;;7.60;4.43;;;1.10;99.90;;;;;;5008793;28;20216;-81
2023/03/10 05:57:13;;;;;;;11.57;5.27;;;1.10;99.90;;;;;;5001368;28;20176;-82
2023/03/10 05:59:39;;;;;;;4.87;3.73;;;1.10;99.90;;;;;;5016019;28;20736;-82
2023/03/10 06:02:04;;;;;;;8.87;4.57;;;1.10;99.90;;;;;;5022236;28;20651;-82
2023/03/10 06:04:33;;;;;;;9.07;5.70;;;1.10;99.90;;;;;;5022328;28;20649;-82
2023/03/10 06:07:02;;;;;;;12.77;4.67;;;1.10;99.90;;;;;;5035084;28;20176;-82
2023/03/10 06:09:29;;;;;;;12.40;5.17;;;1.20;99.90;;;;;;5034855;28;20196;-82
2023/03/10 06:11:56;;;;;;;7.00;4.17;;;1.20;99.90;;;;;;5034868;28;20268;-82
2023/03/10 06:14:22;;;;;;;13.37;6.50;;;1.30;99.90;;;;;;5034703;28;20714;-82
2023/03/10 06:16:50;;;;;;;8.67;4.57;;;1.30;99.90;;;;;;5035432;28;20181;-82
2023/03/10 06:19:22;;;;;;;7.80;4.60;;;1.30;99.90;;;;;;5001290;28;20211;-82
2023/03/10 06:21:48;;;;;;;4.60;3.40;;;1.50;99.90;;;;;;5017522;28;20188;-82
2023/03/10 06:24:14;;;;;;;8.23;5.20;;;1.40;99.90;;;;;;5017384;28;20640;-82
2023/03/10 06:26:40;;;;;;;8.77;5.10;;;1.50;99.90;;;;;;5016727;28;20259;-82
2023/03/10 06:29:06;;;;;;;16.33;5.77;;;1.60;99.90;;;;;;5034600;28;20650;-82
2023/03/10 06:31:31;;;;;;;17.77;5.67;;;1.60;99.90;;;;;;5000579;28;20191;-82
2023/03/10 06:33:58;;;;;;;10.60;6.43;;;1.70;99.90;;;;;;5017439;28;20193;-82
2023/03/10 06:36:25;;;;;;;12.23;6.40;;;1.80;99.90;;;;;;5000572;28;20177;-82
2023/03/10 06:38:52;;;;;;;6.87;4.83;;;1.90;99.90;;;;;;5000655;28;20208;-83
2023/03/10 06:41:19;;;;;;;8.07;5.80;;;1.90;99.90;;;;;;5034516;28;20187;-83
2023/03/10 06:43:45;;;;;;;9.90;5.07;;;2.00;99.90;;;;;;5034331;28;20178;-82
2023/03/10 06:46:11;;;;;;;13.77;5.97;;;2.00;99.90;;;;;;5034374;28;20187;-82
2023/03/10 06:48:38;;;;;;;5.67;4.63;;;2.10;99.90;;;;;;5016704;28;20196;-82
2023/03/10 06:51:07;;;;;;;20.57;7.03;;;2.20;99.90;;;;;;5034448;28;20237;-82
2023/03/10 06:53:32;;;;;;;16.50;7.03;;;2.30;99.90;;;;;;5016261;28;20180;-82
2023/03/10 06:56:01;;;;;;;21.53;7.93;;;2.30;99.90;;;;;;5016589;28;20653;-82
2023/03/10 06:58:28;;;;;;;13.90;7.27;;;2.40;99.90;;;;;;5034350;28;20177;-81
2023/03/10 07:00:54;;;;;;;16.93;8.27;;;2.50;99.90;;;;;;5000832;28;20193;-81
2023/03/10 07:03:20;;;;;;;20.40;9.13;;;2.60;99.90;;;;;;5016749;28;20191;-80
2023/03/10 07:05:46;;;;;;;17.77;7.70;;;2.70;99.90;;;;;;5032972;28;20546;-79
2023/03/10 07:08:12;;;;;;;22.67;8.63;;;2.80;99.90;;;;;;5034252;28;20258;-81
2023/03/10 07:10:37;;;;;;;21.40;6.63;;;2.90;99.90;;;;;;5034099;28;20217;-82
2023/03/10 07:13:03;;;;;;;18.73;9.10;;;2.90;99.90;;;;;;4983647;28;20293;-82
2023/03/10 07:15:28;;;;;;;25.80;9.10;;;3.00;99.90;;;;;;5016283;28;20192;-82
2023/03/10 07:17:55;;;;;;;15.93;6.70;;;3.10;99.90;;;;;;5034302;28;20180;-82
2023/03/10 07:20:22;;;;;;;12.93;6.63;;;3.20;99.90;;;;;;5016625;28;20302;-82
2023/03/10 07:22:48;;;;;;;16.87;6.57;;;3.30;99.90;;;;;;5016223;28;20610;-82
2023/03/10 07:25:14;;;;;;;20.43;8.43;;;3.40;99.90;;;;;;4999777;28;20212;-82
2023/03/10 07:27:39;;;;;;;12.70;6.70;;;3.60;99.90;;;;;;5016073;28;20185;-82
2023/03/10 07:30:06;;;;;;;16.30;7.13;;;3.70;99.90;;;;;;5016322;28;20544;-82
2023/03/10 07:32:32;;;;;;;12.03;5.47;;;3.80;99.90;;;;;;5015561;28;20618;-82
2023/03/10 07:34:57;;;;;;;14.13;7.47;;;3.90;99.90;;;;;;5033865;28;20204;-81
2023/03/10 07:37:23;;;;;;;11.17;6.37;;;4.00;99.90;;;;;;5015880;28;20200;-82
2023/03/10 07:39:49;;;;;;;24.00;9.47;;;4.10;99.90;;;;;;5015533;28;20291;-83
2023/03/10 07:42:14;;;;;;;18.57;8.67;;;4.20;99.90;;;;;;5033436;28;20633;-82
2023/03/10 07:44:40;;;;;;;14.30;9.23;;;4.30;99.90;;;;;;5015598;28;20196;-82
2023/03/10 07:47:06;;;;;;;14.93;8.00;;;4.50;99.90;;;;;;5015976;28;20176;-82
2023/03/10 07:49:31;;;;;;;19.83;7.23;;;4.60;99.90;;;;;;5033117;28;20249;-83
2023/03/10 07:51:57;;;;;;;17.73;7.60;;;4.70;99.90;;;;;;5015572;28;20187;-82
2023/03/10 07:54:23;;;;;;;17.27;8.10;;;4.80;99.90;;;;;;5032849;28;20273;-82
2023/03/10 07:56:48;;;;;;;17.77;8.03;;;5.00;99.90;;;;;;5033075;28;20189;-82
2023/03/10 07:59:14;;;;;;;27.97;10.03;;;5.10;99.90;;;;;;5015745;28;20219;-82
2023/03/10 08:01:39;;;;;;;21.30;10.00;;;5.10;99.90;;;;;;5015310;28;20214;-82
2023/03/10 08:04:06;;;;;;;22.83;10.33;;;5.20;99.90;;;;;;5033440;28;20279;-82
2023/03/10 08:06:34;;;;;;;24.20;7.30;;;5.30;99.90;;;;;;5015334;28;20180;-84
2023/03/10 08:08:59;;;;;;;31.60;8.53;;;5.40;99.90;;;;;;5032861;28;20311;-82
2023/03/10 08:11:26;;;;;;;15.40;6.80;;;5.50;99.90;;;;;;5015037;28;20268;-82
2023/03/10 08:13:51;;;;;;;10.00;4.77;;;5.60;99.90;;;;;;5032289;28;20235;-82
2023/03/10 08:16:19;;;;;;;10.00;5.77;;;5.60;99.90;;;;;;5014901;28;20558;-82
2023/03/10 08:18:45;;;;;;;10.00;3.87;;;5.80;99.90;;;;;;5032265;28;20196;-83
2023/03/10 08:21:10;;;;;;;9.43;4.90;;;5.90;99.90;;;;;;4998615;28;20250;-81
2023/03/10 08:23:37;;;;;;;7.13;5.30;;;6.00;99.90;;;;;;5032673;28;20211;-83
2023/03/10 08:26:08;;;;;;;10.73;5.20;;;6.10;99.90;;;;;;5032725;28;20180;-81
2023/03/10 08:28:36;;;;;;;10.03;4.33;;;6.40;99.90;;;;;;5032737;28;20184;-82
2023/03/10 08:31:13;;;;;;;5.23;4.07;;;6.60;99.90;;;;;;5032502;28;20188;-82
2023/03/10 08:33:39;;;;;;;6.97;4.63;;;6.80;99.90;;;;;;5032599;28;20223;-81
2023/03/10 08:36:06;;;;;;;11.50;4.67;;;7.00;99.90;;;;;;5042851;28;20188;-81
2023/03/10 08:38:32;;;;;;;11.53;4.83;;;7.10;99.90;;;;;;5056521;28;20229;-80
2023/03/10 08:41:06;;;;;;;9.30;4.63;;;7.30;99.90;;;;;;5043234;28;20209;-80
2023/03/10 08:43:32;;;;;;;6.57;4.57;;;7.40;99.90;;;;;;5025608;28;20179;-80
2023/03/10 08:45:57;;;;;;;6.43;3.53;;;7.50;99.90;;;;;;5054143;28;20184;-83
2023/03/10 08:48:23;;;;;;;7.97;4.67;;;7.50;99.90;;;;;;5041104;28;20243;-83
2023/03/10 08:50:49;;;;;;;6.43;4.33;;;7.60;99.90;;;;;;5023889;28;20222;-83
2023/03/10 08:53:14;;;;;;;5.73;3.33;;;7.70;99.90;;;;;;5014686;28;20195;-81
2023/03/10 08:55:41;;;;;;;6.10;3.77;;;7.80;99.90;;;;;;5054419;28;20188;-81
2023/03/10 08:58:07;;;;;;;8.33;4.90;;;7.90;99.90;;;;;;5053225;28;20247;-82
2023/03/10 09:00:32;;;;;;;11.33;6.57;;;8.00;99.90;;;;;;5051075;28;20719;-82
2023/03/10 09:02:58;;;;;;;8.70;4.00;;;8.00;99.90;;;;;;5039345;28;20309;-83
2023/03/10 09:05:24;;;;;;;9.80;5.37;;;8.10;99.90;;;;;;5042510;28;20204;-82
2023/03/10 09:07:49;;;;;;;4.57;3.40;;;8.20;99.90;;;;;;5004176;28;20184;-84
2023/03/10 09:10:15;;;;;;;8.20;3.83;;;8.30;99.90;;;;;;5013756;28;20697;-84
2023/03/10 09:12:41;;;;;;;7.50;3.77;;;8.30;99.90;;;;;;5013490;28;20705;-83
2023/03/10 09:15:07;;;;;;;6.07;3.37;;;8.40;99.90;;;;;;5013754;28;20586;-84
2023/03/10 09:17:33;;;;;;;8.30;3.50;;;8.40;99.90;;;;;;5013996;28;20188;-82
2023/03/10 09:19:58;;;;;;;6.70;3.83;;;8.50;99.90;;;;;;5013275;28;20578;-82
2023/03/10 09:22:24;;;;;;;5.77;2.60;;;8.70;99.90;;;;;;5031527;28;20193;-83
2023/03/10 09:24:49;;;;;;;4.27;2.87;;;8.80;99.90;;;;;;5013592;28;20236;-84
2023/03/10 09:27:15;;;;;;;6.57;2.60;;;9.00;99.90;;;;;;5038726;28;20188;-82
2023/03/10 09:29:41;;;;;;;6.53;3.57;;;9.10;99.90;;;;;;4999871;28;20188;-82
2023/03/10 09:32:07;;;;;;;8.13;2.77;;;9.20;99.90;;;;;;5000903;28;20339;-82
2023/03/10 09:34:32;;;;;;;6.17;2.90;;;9.30;99.90;;;;;;5035346;28;20634;-81
2023/03/10 09:36:58;;;;;;;3.40;2.23;;;9.40;99.90;;;;;;5034673;28;20180;-82
2023/03/10 09:39:24;;;;;;;3.67;2.23;;;9.50;99.90;;;;;;5035009;28;20255;-82
2023/03/10 09:42:20;;;;;;;4.67;2.73;;;9.60;99.90;;;;;;5000860;28;20192;-82
2023/03/10 09:45:18;;;;;;;7.77;3.97;;;9.80;99.90;;;;;;5034825;28;20222;-82
2023/03/10 09:47:44;;;;;;;3.43;2.60;;;9.90;99.90;;;;;;5034978;28;20272;-84
2023/03/10 09:50:14;;;;;;;4.18;2.50;;;10.20;99.90;;;;;;5035176;28;20274;-81
2023/03/10 09:53:14;;;;;;;7.05;3.80;;;10.40;99.90;;;;;;5035358;28;20176;-81
2023/03/10 09:55:43;;;;;;;6.25;3.28;;;10.70;99.90;;;;;;5034265;28;20192;-83
2023/03/10 09:58:41;;;;;;;2.97;1.90;;;10.90;99.90;;;;;;5034692;28;20263;-82
2023/03/10 10:01:16;;;;;;;6.10;2.33;;;11.00;99.90;;;;;;5030328;28;20722;-83
2023/03/10 10:03:52;;;;;;;5.47;3.45;;;11.10;99.90;;;;;;5016914;28;20530;-83
2023/03/10 10:06:25;;;;;;;14.15;5.18;;;11.20;99.90;;;;;;5034996;28;20712;-82
2023/03/10 10:09:07;;;;;;;15.98;5.22;;;11.20;99.90;;;;;;5024458;28;20176;-81
2023/03/10 10:11:35;;;;;;;12.13;3.97;;;11.30;99.90;;;;;;5045464;28;20172;-83
2023/03/10 10:14:21;;;;;;;6.68;2.55;;;11.40;99.90;;;;;;5044055;28;20228;-82
2023/03/10 10:16:58;;;;;;;12.88;4.45;;;11.30;99.90;;;;;;5045270;28;20222;-82
2023/03/10 10:19:26;;;;;;;6.13;2.97;;;11.30;99.90;;;;;;5037264;28;20211;-80
2023/03/10 10:22:13;;;;;;;21.08;6.85;;;11.20;99.90;;;;;;5034709;28;20348;-82
2023/03/10 10:24:39;;;;;;;13.18;5.55;;;11.20;99.90;;;;;;5045077;28;20176;-81
2023/03/10 10:27:05;;;;;;;15.70;6.30;;;11.20;99.90;;;;;;5042540;28;20546;-81
2023/03/10 10:29:36;;;;;;;16.50;6.47;;;11.30;99.90;;;;;;5050553;28;20191;-80
2023/03/10 10:32:08;;;;;;;11.73;5.32;;;11.30;99.90;;;;;;5029018;28;20176;-81
2023/03/10 10:34:37;;;;;;;6.13;2.60;;;11.40;99.90;;;;;;5044623;28;20181;-81
2023/03/10 10:37:32;;;;;;;4.30;1.85;;;11.50;99.90;;;;;;5042982;28;20176;-81
2023/03/10 10:39:59;;;;;;;4.85;2.45;;;11.60;99.90;;;;;;5038546;28;20294;-82
2023/03/10 10:42:27;;;;;;;5.00;1.80;;;11.80;99.90;;;;;;5037332;28;20233;-81
2023/03/10 10:44:58;;;;;;;6.95;2.47;;;11.90;99.90;;;;;;5041274;28;20164;-84
2023/03/10 10:47:31;;;;;;;4.05;1.90;;;12.10;99.90;;;;;;5036463;28;20631;-82
2023/03/10 10:50:15;;;;;;;3.67;1.40;;;12.40;99.90;;;;;;5017771;28;20206;-82
2023/03/10 10:52:41;;;;;;;5.63;2.45;;;12.50;99.90;;;;;;5044337;28;20237;-81
2023/03/10 10:55:33;;;;;;;4.32;2.17;;;12.60;99.90;;;;;;5024943;28;20181;-81
2023/03/10 10:58:02;;;;;;;5.03;2.15;;;12.60;99.90;;;;;;5043889;28;20165;-82
2023/03/10 11:00:31;;;;;;;2.63;1.55;;;12.60;99.90;;;;;;5043026;28;20196;-81
2023/03/10 11:02:58;;;;;;;4.60;2.15;;;12.50;99.90;;;;;;5043817;28;20185;-81
2023/03/10 11:05:35;;;;;;;4.13;2.35;;;12.40;99.90;;;;;;5026102;28;20663;-81
2023/03/10 11:08:36;;;;;;;4.40;1.88;;;12.40;99.90;;;;;;5044388;28;20198;-82
2023/03/10 11:11:39;;;;;;;3.28;2.25;;;12.50;99.90;;;;;;5020428;28;20261;-82
2023/03/10 11:14:44;;;;;;;2.30;1.80;;;12.40;99.90;;;;;;4988278;28;20631;-82
2023/03/10 11:17:30;;;;;;;3.83;2.00;;;12.40;99.90;;;;;;5041210;28;20178;-84
2023/03/10 11:20:08;;;;;;;3.67;2.03;;;12.50;99.90;;;;;;5041634;28;20199;-82
2023/03/10 11:23:12;;;;;;;6.15;2.47;;;12.50;99.90;;;;;;5023057;28;20211;-82
2023/03/10 11:25:46;;;;;;;5.60;1.83;;;12.50;99.90;;;;;;5015658;28;20176;-81
2023/03/10 11:28:39;;;;;;;2.25;1.63;;;11.90;99.90;;;;;;5033348;28;20700;-81
2023/03/10 11:31:41;;;;;;;2.53;1.50;;;12.70;99.90;;;;;;5023432;28;20168;-82
2023/03/10 11:34:34;;;;;;;4.38;2.38;;;12.90;99.90;;;;;;5028095;28;20190;-82
2023/03/10 11:37:13;;;;;;;3.28;1.95;;;13.30;99.90;;;;;;5052369;28;20172;-82
2023/03/10 11:39:38;;;;;;;6.63;2.15;;;13.70;99.90;;;;;;5034625;28;20242;-81
2023/03/10 11:42:25;;;;;;;1.83;1.05;;;14.10;99.90;;;;;;5034507;28;20211;-81
2023/03/10 11:45:17;;;;;;;2.45;1.70;;;14.30;99.90;;;;;;5034395;28;20202;-82
2023/03/10 11:48:20;;;;;;;3.78;2.05;;;14.30;99.90;;;;;;5052518;28;20217;-82
2023/03/10 11:50:58;;;;;;;6.70;1.67;;;14.30;99.90;;;;;;5052589;28;20171;-81
2023/03/10 11:53:38;;;;;;;1.88;1.10;;;14.50;99.90;;;;;;5053227;28;20200;-82
2023/03/10 11:56:07;;;;;;;3.88;2.13;;;14.50;99.90;;;;;;5052901;28;20254;-82
2023/03/10 11:59:11;;;;;;;1.30;1.20;;;14.50;99.90;;;;;;5052977;28;20168;-81
2023/03/10 12:02:02;;;;;;;1.58;1.20;;;14.70;99.90;;;;;;4972392;28;20530;-81
2023/03/10 12:04:47;;;;;;;3.50;1.40;;;15.00;99.90;;;;;;5031964;28;20188;-82
2023/03/10 12:07:17;;;;;;;8.18;2.00;;;15.10;99.90;;;;;;5052638;28;20553;-81
2023/03/10 12:09:58;;;;;;;2.67;1.55;;;15.20;99.90;;;;;;5052771;28;20183;-82
2023/03/10 12:12:27;;;;;;;1.83;1.50;;;15.20;99.90;;;;;;5052754;28;20199;-81
2023/03/10 12:14:54;;;;;;;2.38;1.45;;;15.20;99.90;;;;;;5053088;28;20182;-81
2023/03/10 12:17:20;;;;;;;3.95;1.73;;;15.30;99.90;;;;;;5052534;28;20191;-82
2023/03/10 12:20:14;;;;;;;8.13;3.03;;;15.40;99.90;;;;;;5035134;28;20204;-81
2023/03/10 12:22:42;;;;;;;3.05;1.92;;;15.50;99.90;;;;;;5052831;28;20212;-82
2023/03/10 12:25:26;;;;;;;1.95;1.50;;;15.50;99.90;;;;;;5052473;28;20270;-82
2023/03/10 12:28:18;;;;;;;3.83;1.40;;;15.50;99.90;;;;;;5052500;28;20643;-82
2023/03/10 12:30:51;;;;;;;2.95;1.92;;;15.50;99.90;;;;;;5048749;28;20214;-82
2023/03/10 12:33:40;;;;;;;2.75;1.40;;;15.60;99.90;;;;;;5052552;28;20176;-82
2023/03/10 12:36:31;;;;;;;3.72;2.25;;;15.70;99.90;;;;;;5034389;28;20178;-82
2023/03/10 12:39:00;;;;;;;1.48;1.38;;;15.80;99.90;;;;;;5052639;28;20235;-82
2023/03/10 12:41:25;;;;;;;1.73;1.15;;;16.00;99.90;;;;;;5052433;28;20526;-82
2023/03/10 12:43:58;;;;;;;2.10;1.38;;;16.00;95.40;;;;;;5052607;28;20259;-81
2023/03/10 12:46:45;;;;;;;2.53;1.42;;;16.20;95.60;;;;;;5052197;28;20652;-82
2023/03/10 12:49:30;;;;;;;3.80;1.65;;;16.20;94.00;;;;;;5052632;28;20180;-82
2023/03/10 12:52:25;;;;;;;1.60;1.30;;;16.30;95.70;;;;;;5052714;28;20168;-82
2023/03/10 12:54:53;;;;;;;4.03;1.60;;;16.10;95.10;;;;;;5034207;28;20518;-82
2023/03/10 12:57:43;;;;;;;4.20;1.67;;;16.10;93.60;;;;;;5052311;28;20172;-82
2023/03/10 13:00:46;;;;;;;2.90;1.20;;;16.20;94.60;;;;;;5052545;28;20194;-83
2023/03/10 13:03:18;;;;;;;3.25;1.75;;;16.40;93.80;;;;;;5052602;28;20600;-81
2023/03/10 13:05:58;;;;;;;2.58;1.60;;;16.40;93.50;;;;;;5038688;28;20172;-81
2023/03/10 13:08:38;;;;;;;2.17;1.35;;;16.60;91.50;;;;;;5056160;28;20176;-81
2023/03/10 13:11:25;;;;;;;2.55;1.70;;;16.50;91.50;;;;;;5056401;28;20648;-81